Time;durP1;ratioP1;P1;durP2;ratioP2;P2;SDS_P1;SDS_P2;PMS_P1;PMS_P2;Temp;Humidity;BMP_temperature;BMP_pressure;BME280_temperature;BME280_humidity;BME280_pressure;Samples;Min_cycle;Max_cycle;Signal;HPM_P1;HPM_P2
2021/06/30 00:02:06;;;;;;;0.10;0.10;;;15.00;1.00;;;24.90;73.21;97599.38;5028164;28;20214;-75
2021/06/30 00:05:33;;;;;;;0.10;0.10;;;15.10;1.00;;;-139.38;100.00;63230.50;5029535;28;20207;-75
2021/06/30 00:08:59;;;;;;;0.30;0.30;;;15.20;1.00;;;-139.38;100.00;63230.50;5030046;28;20217;-75
2021/06/30 00:12:24;;;;;;;0.10;0.10;;;15.30;1.00;;;-139.38;100.00;63230.50;5029735;28;20207;-75
2021/06/30 00:15:51;;;;;;;0.10;0.10;;;15.40;1.00;;;-139.38;100.00;63230.50;5029591;28;20844;-75
2021/06/30 00:19:17;;;;;;;0.10;0.10;;;15.50;1.00;;;-139.38;100.00;63230.50;5031770;28;20225;-75
2021/06/30 00:22:22;;;;;;;0.10;0.10;;;15.50;1.00;;;24.90;73.21;97599.38;5034697;28;20210;-75
2021/06/30 00:24:49;;;;;;;0.20;0.20;;;15.50;1.00;;;25.02;67.83;97643.38;5033734;28;20216;-76
2021/06/30 00:27:16;;;;;;;0.10;0.10;;;15.50;1.00;;;24.92;68.64;97636.19;5034554;28;20234;-75
2021/06/30 00:29:43;;;;;;;0.10;0.10;;;15.50;1.00;;;25.14;67.87;97630.06;5033244;28;20238;-75
2021/06/30 00:32:10;;;;;;;0.10;0.10;;;15.50;1.00;;;25.35;67.51;97623.09;5034176;28;20208;-75
2021/06/30 00:34:37;;;;;;;0.10;0.10;;;15.60;1.00;;;-139.38;100.00;63230.50;5033097;28;20209;-75
2021/06/30 00:37:06;;;;;;;0.10;0.10;;;15.50;1.00;;;25.83;64.20;97624.22;5034062;28;20239;-75
2021/06/30 00:39:33;;;;;;;0.10;0.10;;;15.50;1.00;;;25.57;65.02;97620.44;5032281;28;20231;-75
2021/06/30 00:42:00;;;;;;;0.10;0.10;;;15.50;1.00;;;25.28;65.26;97620.78;5034620;28;20212;-75
2021/06/30 00:44:27;;;;;;;0.10;0.10;;;15.50;1.00;;;25.35;66.26;97625.84;5032716;28;20204;-75
2021/06/30 00:46:54;;;;;;;0.10;0.10;;;15.50;1.00;;;25.36;64.22;97633.72;5034098;28;20235;-75
2021/06/30 00:49:21;;;;;;;0.10;0.10;;;15.50;1.00;;;-139.38;100.00;63230.50;5033352;28;20200;-75
2021/06/30 00:52:47;;;;;;;0.10;0.10;;;15.50;1.00;;;-139.38;100.00;63230.50;5033777;28;20236;-75
2021/06/30 00:56:14;;;;;;;0.10;0.10;;;15.50;1.00;;;-139.38;100.00;63230.50;5027761;28;20200;-75
2021/06/30 00:59:40;;;;;;;0.10;0.10;;;15.50;1.00;;;-139.38;100.00;63230.50;5032839;28;20231;-76
2021/06/30 01:03:06;;;;;;;0.13;0.13;;;15.40;1.00;;;-139.38;100.00;63230.50;5032332;28;20267;-76
2021/06/30 01:06:31;;;;;;;0.10;0.10;;;15.40;1.00;;;-139.38;100.00;63230.50;5027371;28;20203;-76
2021/06/30 01:09:59;;;;;;;0.10;0.10;;;15.40;1.00;;;-139.38;100.00;63230.50;5030626;28;20209;-76
2021/06/30 01:13:25;;;;;;;0.10;0.10;;;15.40;1.00;;;-139.38;100.00;63230.50;5033370;28;20621;-76
2021/06/30 01:16:52;;;;;;;0.10;0.10;;;15.40;1.00;;;-139.38;100.00;63230.50;5032648;28;20210;-75
2021/06/30 01:20:19;;;;;;;0.10;0.10;;;15.50;1.00;;;-139.38;100.00;63230.50;5033354;28;20225;-76
2021/06/30 01:24:02;;;;;;;0.10;0.10;;;15.50;1.00;;;-139.38;100.00;63230.50;5033204;28;20730;-75
2021/06/30 01:27:30;;;;;;;0.10;0.10;;;15.40;1.00;;;-139.38;100.00;63230.50;5032011;28;20290;-76
2021/06/30 01:30:55;;;;;;;0.10;0.10;;;15.40;1.00;;;-139.38;100.00;63230.50;5031737;28;20303;-76
2021/06/30 01:34:22;;;;;;;0.10;0.10;;;15.40;1.00;;;-139.38;100.00;63230.50;5027440;28;20201;-75
2021/06/30 01:37:51;;;;;;;0.10;0.10;;;15.40;1.00;;;-139.38;100.00;63230.50;5032596;28;20223;-75
2021/06/30 01:41:18;;;;;;;0.10;0.10;;;15.40;1.00;;;-139.38;100.00;63230.50;5032511;28;20589;-75
2021/06/30 01:44:43;;;;;;;0.10;0.10;;;15.40;1.00;;;-139.38;100.00;63230.50;5032124;28;20672;-74
2021/06/30 01:48:09;;;;;;;0.10;0.10;;;15.30;1.00;;;-139.38;100.00;63230.50;5032982;28;20229;-75
2021/06/30 01:51:35;;;;;;;0.10;0.10;;;15.30;1.00;;;-139.38;100.00;63230.50;5027727;28;20222;-75
2021/06/30 01:54:06;;;;;;;0.10;0.10;;;15.10;1.00;;;24.52;69.00;97655.97;5032177;28;20210;-75
2021/06/30 01:56:34;;;;;;;0.10;0.10;;;;;;;24.52;69.00;97655.97;5032525;28;20227;-74
2021/06/30 01:59:07;;;;;;;0.10;0.10;;;14.90;1.00;;;24.37;68.88;97649.97;5030994;28;20221;-75
2021/06/30 02:01:34;;;;;;;0.10;0.10;;;14.90;1.00;;;24.87;68.08;97658.13;5033032;28;20210;-74
2021/06/30 02:04:02;;;;;;;0.10;0.10;;;14.80;1.00;;;24.98;69.19;97658.78;5031155;28;20207;-74
2021/06/30 02:06:36;;;;;;;1.57;0.70;;;14.70;1.00;;;24.64;71.51;97631.81;5032888;28;20233;-74
2021/06/30 02:09:06;;;;;;;0.80;0.60;;;14.60;1.00;;;24.74;70.61;97625.34;5031646;28;20205;-74
2021/06/30 02:11:33;;;;;;;1.53;0.80;;;14.40;1.00;;;24.45;71.10;97644.66;5032642;28;20233;-74
2021/06/30 02:14:01;;;;;;;0.87;0.70;;;14.40;1.00;;;23.86;73.38;97646.38;5031300;28;20314;-74
2021/06/30 02:16:28;;;;;;;1.03;0.60;;;14.40;1.00;;;-139.38;100.00;63230.50;5031572;28;20214;-74
2021/06/30 02:18:55;;;;;;;1.23;0.53;;;14.20;1.00;;;-139.38;100.00;63230.50;5032531;28;20226;-74
2021/06/30 02:21:22;;;;;;;2.70;0.73;;;14.20;1.00;;;23.92;74.60;97647.94;5031799;28;20316;-74
2021/06/30 02:23:49;;;;;;;1.37;0.67;;;14.20;1.00;;;23.80;75.30;97644.78;5030016;28;20214;-74
2021/06/30 02:26:17;;;;;;;2.00;0.70;;;14.20;1.00;;;24.09;72.41;97650.97;5032279;28;20241;-74
2021/06/30 02:28:44;;;;;;;0.73;0.70;;;14.10;1.00;;;23.81;72.20;97651.91;5031748;28;20207;-74
2021/06/30 02:31:11;;;;;;;0.77;0.60;;;14.20;1.00;;;23.76;70.01;97658.22;5031655;28;20206;-74
2021/06/30 02:33:38;;;;;;;0.80;0.60;;;14.10;1.00;;;23.21;73.29;97655.38;5031224;28;21255;-74
2021/06/30 02:36:05;;;;;;;0.57;0.53;;;14.00;1.00;;;23.69;70.96;97668.66;5028109;28;20230;-74
2021/06/30 02:38:32;;;;;;;0.50;0.50;;;14.00;1.00;;;23.28;72.68;97656.66;5031024;28;20581;-74
2021/06/30 02:40:59;;;;;;;0.70;0.70;;;13.90;1.00;;;22.83;73.19;97661.72;5031623;28;20627;-75
2021/06/30 02:43:28;;;;;;;0.40;0.40;;;13.90;1.00;;;22.88;74.43;97667.13;5032280;28;20626;-75
2021/06/30 02:45:55;;;;;;;0.80;0.50;;;13.90;1.00;;;22.77;73.36;97666.44;5030659;28;20733;-74
2021/06/30 02:48:23;;;;;;;0.57;0.50;;;13.90;1.00;;;23.14;71.90;97679.38;5031386;28;20675;-75
2021/06/30 02:50:50;;;;;;;0.90;0.50;;;13.80;99.90;;;22.91;73.17;97669.28;5031267;28;20311;-75
2021/06/30 02:53:17;;;;;;;0.80;0.60;;;13.80;1.00;;;23.13;71.92;97672.31;5030357;28;20208;-75
2021/06/30 02:55:44;;;;;;;0.50;0.50;;;13.80;1.00;;;23.00;71.41;97673.81;5030163;28;20209;-75
2021/06/30 02:58:11;;;;;;;0.40;0.40;;;13.80;1.00;;;22.77;72.80;97671.88;5031414;28;20217;-74
2021/06/30 03:00:39;;;;;;;0.70;0.30;;;13.90;1.00;;;22.86;70.54;97681.00;5030162;28;20226;-74
2021/06/30 03:03:08;;;;;;;2.53;0.60;;;13.80;1.00;;;22.59;72.25;97688.88;5032001;28;20216;-74
2021/06/30 03:08:10;;;;;;;1.40;0.67;;;13.70;1.00;;;23.11;70.05;97696.31;5215472;23;20251;-71
2021/06/30 03:10:37;;;;;;;0.63;0.57;;;13.70;1.00;;;23.18;68.72;97694.91;5011326;28;20215;-71
2021/06/30 03:13:04;;;;;;;1.00;0.63;;;13.80;1.00;;;23.14;68.99;97685.63;5011230;28;20298;-71
2021/06/30 03:15:31;;;;;;;0.63;0.37;;;13.80;1.00;;;23.18;67.97;97673.09;5010416;28;20207;-70
2021/06/30 03:18:00;;;;;;;0.60;0.60;;;13.70;1.00;;;23.15;69.74;97679.09;5019696;28;20316;-71
2021/06/30 03:20:27;;;;;;;1.40;0.50;;;13.70;1.00;;;22.98;68.57;97684.19;5025565;28;20225;-71
2021/06/30 03:22:54;;;;;;;0.43;0.40;;;13.70;1.00;;;22.66;69.97;97670.34;5029969;28;20202;-71
2021/06/30 03:25:21;;;;;;;1.53;0.40;;;13.70;1.00;;;22.98;68.24;97669.75;5032502;28;20202;-71
2021/06/30 03:27:47;;;;;;;0.53;0.40;;;13.70;1.00;;;22.93;70.49;97676.06;5010765;28;20234;-71
2021/06/30 03:30:15;;;;;;;0.70;0.30;;;13.70;1.00;;;22.00;73.47;97671.09;5010990;28;20210;-71
2021/06/30 03:32:42;;;;;;;0.40;0.40;;;13.60;1.00;;;22.37;71.62;97672.19;5011236;28;20205;-72
2021/06/30 03:35:11;;;;;;;0.40;0.40;;;13.60;1.00;;;22.34;72.66;97659.16;5009959;28;20203;-72
2021/06/30 03:37:38;;;;;;;1.90;0.50;;;13.60;1.00;;;22.40;71.83;97668.88;5010787;28;20230;-71
2021/06/30 03:40:06;;;;;;;0.60;0.40;;;;;;;21.79;75.82;97667.66;5010675;28;20227;-71
2021/06/30 03:42:33;;;;;;;0.53;0.40;;;13.60;1.00;;;22.59;72.11;97669.06;5011221;28;20217;-72
2021/06/30 03:45:00;;;;;;;0.73;0.50;;;13.60;1.00;;;22.63;70.49;97670.09;5010522;28;20305;-72
2021/06/30 03:47:27;;;;;;;0.60;0.60;;;13.60;1.00;;;22.67;69.93;97669.25;5010270;28;20226;-72
2021/06/30 03:49:55;;;;;;;0.97;0.50;;;13.60;1.00;;;22.60;69.57;97671.47;5003485;28;20196;-72
2021/06/30 03:52:23;;;;;;;0.50;0.50;;;13.50;1.00;;;22.69;70.56;97666.22;5010358;28;20203;-72
2021/06/30 03:54:50;;;;;;;0.57;0.47;;;13.60;1.00;;;23.22;68.02;97682.34;5010026;28;20222;-72
2021/06/30 03:57:17;;;;;;;0.40;0.40;;;13.60;1.00;;;22.38;71.14;97672.97;5010903;28;20236;-71
2021/06/30 03:59:44;;;;;;;3.03;0.70;;;13.60;1.00;;;22.55;71.15;97674.22;5010113;28;20213;-71
2021/06/30 04:02:13;;;;;;;0.70;0.50;;;;;;;22.96;68.92;97686.34;5009436;28;20221;-71
2021/06/30 04:04:40;;;;;;;0.60;0.50;;;13.60;1.00;;;22.98;68.51;97683.34;5007564;28;20302;-72
2021/06/30 04:07:07;;;;;;;0.53;0.53;;;13.70;1.00;;;22.60;69.56;97695.16;5009985;28;20231;-71
2021/06/30 04:09:35;;;;;;;0.43;0.40;;;13.60;1.00;;;23.11;68.68;97699.03;5009499;28;20222;-71
2021/06/30 04:12:02;;;;;;;2.33;0.70;;;13.60;1.00;;;22.88;68.94;97687.00;5011229;28;20667;-71
2021/06/30 04:14:29;;;;;;;1.80;0.43;;;13.60;1.00;;;23.26;67.02;97696.16;5010597;28;20216;-71
2021/06/30 04:16:56;;;;;;;0.60;0.50;;;13.60;1.00;;;23.20;67.38;97702.78;5011140;28;20229;-71
2021/06/30 04:19:23;;;;;;;2.63;0.43;;;13.60;1.00;;;22.94;68.18;97687.75;5005153;28;20213;-71
2021/06/30 04:21:51;;;;;;;0.43;0.40;;;13.70;1.00;;;22.77;69.74;97687.38;5008075;28;20301;-71
2021/06/30 04:24:17;;;;;;;0.67;0.50;;;13.60;1.00;;;21.99;73.64;97674.91;5009789;28;20201;-71
2021/06/30 04:26:46;;;;;;;0.80;0.70;;;13.60;1.00;;;22.62;70.67;97687.50;5010006;28;20227;-70
2021/06/30 04:29:13;;;;;;;5.13;1.00;;;13.60;1.00;;;22.84;68.00;97690.56;5011045;28;20200;-71
2021/06/30 04:31:40;;;;;;;1.63;0.50;;;13.70;1.00;;;23.31;66.14;97696.91;5010047;28;20523;-71
2021/06/30 04:34:07;;;;;;;0.63;0.50;;;13.70;1.00;;;23.36;65.46;97698.78;5010904;28;20229;-75
2021/06/30 04:36:34;;;;;;;1.10;0.63;;;13.80;1.00;;;23.61;65.14;97693.03;5010401;28;20247;-78
2021/06/30 04:39:00;;;;;;;1.50;0.50;;;13.90;1.00;;;22.92;66.69;97695.41;5011704;28;20200;-75
2021/06/30 04:41:28;;;;;;;0.40;0.40;;;13.90;1.00;;;23.16;65.00;97693.53;5007073;28;20247;-72
2021/06/30 04:43:56;;;;;;;0.63;0.50;;;13.90;1.00;;;23.40;65.26;97702.56;5011559;28;20297;-77
2021/06/30 04:46:23;;;;;;;1.23;0.47;;;13.90;1.00;;;23.81;64.61;97703.69;5010808;28;20203;-76
2021/06/30 04:48:50;;;;;;;0.70;0.60;;;14.00;1.00;;;23.98;62.59;97706.75;5011670;28;20226;-76
2021/06/30 04:51:17;;;;;;;6.00;0.70;;;14.10;1.00;;;24.00;62.37;97707.25;5007714;28;20200;-75
2021/06/30 04:53:46;;;;;;;0.53;0.53;;;14.10;1.00;;;24.56;60.88;97702.59;5009209;28;20200;-75
2021/06/30 04:56:13;;;;;;;0.40;0.40;;;14.20;1.00;;;23.38;64.49;97699.28;5002051;28;20195;-75
2021/06/30 04:58:40;;;;;;;0.70;0.40;;;14.20;1.00;;;23.78;63.47;97696.06;5010857;28;20212;-75
2021/06/30 05:01:08;;;;;;;2.30;0.93;;;14.20;1.00;;;24.21;62.25;97697.66;5005367;28;20229;-74
2021/06/30 05:03:35;;;;;;;1.10;0.80;;;14.30;1.00;;;23.52;62.65;97692.06;5012972;28;20212;-73
2021/06/30 05:06:03;;;;;;;2.20;0.70;;;14.30;1.00;;;24.09;61.35;97695.41;5008622;28;20234;-73
2021/06/30 05:08:30;;;;;;;1.63;0.60;;;14.30;1.00;;;23.96;62.38;97698.84;5013344;28;20259;-73
2021/06/30 05:10:56;;;;;;;0.77;0.60;;;14.30;1.00;;;23.76;64.39;97690.13;5013843;28;20672;-74
2021/06/30 05:13:23;;;;;;;1.13;0.60;;;14.30;1.00;;;24.11;61.56;97695.91;5015793;28;20660;-73
2021/06/30 05:15:50;;;;;;;1.03;0.50;;;14.30;1.00;;;23.37;64.30;97687.59;5011760;28;20200;-73
2021/06/30 05:18:18;;;;;;;1.47;0.40;;;14.40;1.00;;;23.63;65.51;97688.09;5012424;28;20228;-73
2021/06/30 05:20:46;;;;;;;1.17;0.50;;;14.40;1.00;;;23.67;65.09;97698.09;5004925;28;20238;-73
2021/06/30 05:23:14;;;;;;;0.60;0.60;;;14.50;1.00;;;24.34;61.23;97703.22;5014179;28;20207;-72
2021/06/30 05:25:41;;;;;;;0.30;0.30;;;14.60;1.00;;;24.72;58.86;97699.34;5007219;28;20299;-73
2021/06/30 05:28:08;;;;;;;1.43;0.60;;;14.80;1.00;;;24.72;59.47;97698.56;5013098;28;20597;-72
2021/06/30 05:30:35;;;;;;;1.63;0.60;;;14.80;1.00;;;24.76;58.98;97700.38;5013378;28;20207;-74
2021/06/30 05:33:02;;;;;;;0.57;0.50;;;14.90;1.00;;;24.46;59.61;97703.56;5011781;28;20210;-72
2021/06/30 05:35:30;;;;;;;2.43;0.70;;;15.00;1.00;;;25.02;57.80;97703.47;5012790;28;20217;-72
2021/06/30 05:37:57;;;;;;;1.80;0.60;;;15.10;1.00;;;24.10;60.32;97704.38;5012746;28;20733;-73
2021/06/30 05:40:24;;;;;;;1.63;0.90;;;15.00;1.00;;;25.07;58.53;97704.19;5013317;28;20209;-72
2021/06/30 05:42:51;;;;;;;1.00;0.67;;;15.10;1.00;;;24.41;60.04;97702.81;5013117;28;20212;-71
2021/06/30 05:45:19;;;;;;;1.27;0.60;;;15.10;1.00;;;24.48;58.17;97719.66;5013712;28;20271;-72
2021/06/30 05:47:46;;;;;;;0.53;0.47;;;15.20;1.00;;;24.51;61.59;97703.47;5013068;28;20717;-73
2021/06/30 05:50:14;;;;;;;1.20;0.70;;;15.20;1.00;;;24.16;59.68;97716.81;5007031;28;20205;-73
2021/06/30 05:52:43;;;;;;;0.40;0.40;;;15.20;1.00;;;24.71;59.27;97710.56;5013628;28;20590;-73
2021/06/30 05:55:12;;;;;;;1.13;0.70;;;15.20;1.00;;;24.34;58.90;97714.13;5006198;28;20217;-74
2021/06/30 05:57:39;;;;;;;1.00;0.67;;;15.40;1.00;;;24.44;60.39;97699.50;5011728;28;20221;-73
2021/06/30 06:00:10;;;;;;;2.63;0.80;;;15.50;1.00;;;25.05;56.44;97711.06;5014127;28;20697;-72
2021/06/30 06:02:37;;;;;;;1.93;0.90;;;15.80;1.00;;;25.78;54.50;97712.66;5011978;28;20258;-71
2021/06/30 06:05:05;;;;;;;1.67;0.40;;;15.90;1.00;;;26.42;51.86;97722.47;5013244;28;20201;-72
2021/06/30 06:07:32;;;;;;;2.47;0.50;;;16.00;1.00;;;25.55;53.92;97715.59;5012588;28;20711;-70
2021/06/30 06:10:00;;;;;;;0.70;0.60;;;15.90;1.00;;;24.18;60.10;97709.97;5012267;28;20222;-74
2021/06/30 06:12:27;;;;;;;0.40;0.40;;;15.80;1.00;;;26.06;53.38;97708.81;5013220;28;20662;-73
2021/06/30 06:14:55;;;;;;;2.33;0.50;;;15.80;1.00;;;25.38;54.87;97715.41;5013657;28;20662;-73
2021/06/30 06:17:22;;;;;;;0.50;0.40;;;15.90;1.00;;;25.86;52.99;97722.06;5012234;28;20221;-73
2021/06/30 06:19:49;;;;;;;0.50;0.43;;;16.00;1.00;;;25.75;53.62;97716.00;5011341;28;20581;-73
2021/06/30 06:22:16;;;;;;;1.10;0.40;;;16.10;1.00;;;26.36;51.46;97723.72;5012016;28;20237;-73
2021/06/30 06:24:43;;;;;;;0.93;0.40;;;16.20;1.00;;;26.09;53.56;97721.84;5012686;28;20215;-74
2021/06/30 06:27:11;;;;;;;0.50;0.43;;;16.20;1.00;;;25.90;52.52;97717.63;5010515;28;20224;-73
2021/06/30 06:29:39;;;;;;;3.03;0.70;;;16.30;1.00;;;25.85;52.80;97718.50;5003831;28;20214;-75
2021/06/30 06:32:07;;;;;;;0.80;0.60;;;;;;;26.60;50.49;97729.75;5008400;28;20664;-72
2021/06/30 06:34:34;;;;;;;8.00;0.60;;;16.60;1.00;;;27.04;48.74;97729.72;5012879;28;20218;-75
2021/06/30 06:37:04;;;;;;;0.40;0.40;;;16.80;1.00;;;27.17;48.15;97726.94;5012757;28;20245;-75
2021/06/30 06:39:31;;;;;;;0.70;0.40;;;;;;;27.30;46.66;97730.72;5011900;28;20672;-75
2021/06/30 06:41:58;;;;;;;1.37;0.50;;;17.60;99.90;;;27.17;47.01;97734.34;5012945;28;20234;-75
2021/06/30 06:44:26;;;;;;;0.40;0.40;;;;;;;28.06;44.25;97736.53;5007213;28;20211;-74
2021/06/30 06:46:54;;;;;;;0.40;0.40;;;;;;;27.33;45.41;97730.09;5012537;28;20591;-74
2021/06/30 06:49:21;;;;;;;1.57;0.40;;;;;;;26.91;46.69;97731.41;5012562;28;20660;-75
2021/06/30 06:51:48;;;;;;;0.90;0.60;;;;;;;27.19;46.50;97721.97;5011215;28;20203;-75
2021/06/30 06:54:15;;;;;;;0.30;0.30;;;;;;;26.96;46.29;97725.03;5012287;28;20671;-75
2021/06/30 06:56:43;;;;;;;1.23;0.50;;;;;;;27.47;46.25;97734.34;5012409;28;20227;-74
2021/06/30 06:59:10;;;;;;;2.57;0.57;;;;;;;27.76;44.62;97734.63;5012700;28;20200;-74
2021/06/30 07:01:39;;;;;;;0.50;0.50;;;;;;;27.22;44.59;97735.03;5012531;28;20235;-75
2021/06/30 07:04:06;;;;;;;0.73;0.50;;;;;;;27.79;43.64;97746.94;5012584;28;20207;-75
2021/06/30 07:06:33;;;;;;;0.87;0.50;;;;;;;27.51;44.13;97745.53;5010309;28;20207;-75
2021/06/30 07:09:00;;;;;;;0.47;0.40;;;;;;;28.09;42.91;97738.66;5004842;28;20214;-75
2021/06/30 07:11:28;;;;;;;0.50;0.50;;;;;;;27.45;44.61;97746.75;5011427;28;20208;-75
2021/06/30 07:13:55;;;;;;;0.70;0.40;;;;;;;27.84;43.76;97747.63;5012561;28;20200;-75
2021/06/30 07:16:22;;;;;;;1.53;0.40;;;;;;;27.21;45.43;97738.91;5011507;28;20203;-75
2021/06/30 07:18:51;;;;;;;0.30;0.30;;;;;;;26.67;47.65;97738.34;5012018;28;20768;-75
2021/06/30 07:21:18;;;;;;;2.03;0.60;;;;;;;26.76;46.78;97739.22;5011668;28;20254;-74
2021/06/30 07:23:46;;;;;;;0.37;0.33;;;;;;;28.26;42.45;97746.91;5011409;28;20283;-77
2021/06/30 07:26:14;;;;;;;0.43;0.43;;;;;;;27.63;44.77;97745.72;5008214;28;20200;-76
2021/06/30 07:28:42;;;;;;;0.30;0.30;;;;;;;28.54;41.42;97758.44;5012301;28;20203;-76
2021/06/30 07:31:09;;;;;;;0.50;0.40;;;;;;;28.59;40.57;97750.03;5012038;28;20200;-76
2021/06/30 07:33:39;;;;;;;3.00;0.40;;;;;;;28.28;40.78;97760.31;5010038;28;20204;-76
2021/06/30 07:36:10;;;;;;;0.80;0.40;;;;;;;27.88;41.71;97754.06;5012211;28;20192;-77
2021/06/30 07:38:38;;;;;;;0.47;0.40;;;;;;;28.14;41.63;97752.22;5016715;28;20293;-76
2021/06/30 07:41:05;;;;;;;0.63;0.53;;;;;;;27.79;43.76;97756.00;5011511;28;20223;-77
2021/06/30 07:43:33;;;;;;;1.90;0.30;;;;;;;28.02;39.96;97756.72;5012347;28;20209;-77
2021/06/30 07:46:00;;;;;;;1.53;0.50;;;;;;;27.62;40.34;97753.13;5015607;28;20209;-75
2021/06/30 07:48:27;;;;;;;0.50;0.40;;;;;;;27.97;39.71;97756.84;5015960;28;20230;-76
2021/06/30 07:50:55;;;;;;;0.87;0.40;;;;;;;28.92;38.86;97748.41;5011949;28;20207;-77
2021/06/30 07:53:23;;;;;;;0.63;0.53;;;;;;;27.87;41.16;97748.91;5012209;28;20207;-77
2021/06/30 07:55:51;;;;;;;0.30;0.30;;;;;;;28.74;38.53;97755.03;5011896;28;20206;-77
2021/06/30 07:58:20;;;;;;;0.97;0.40;;;;;;;28.36;39.78;97756.75;5011938;28;20247;-77
2021/06/30 08:00:48;;;;;;;0.87;0.53;;;;;;;28.94;37.80;97760.69;5011604;28;20217;-76
2021/06/30 08:03:15;;;;;;;1.10;0.30;;;;;;;28.83;39.10;97759.41;5011484;28;20602;-75
2021/06/30 08:05:43;;;;;;;0.40;0.40;;;;;;;31.04;33.77;97757.59;5011403;28;20303;-77
2021/06/30 08:08:10;;;;;;;0.70;0.40;;;;;;;30.06;35.69;97756.50;5011303;28;20250;-77
2021/06/30 08:10:39;;;;;;;0.50;0.50;;;;;;;29.25;36.15;97764.09;5011514;28;20214;-77
2021/06/30 08:13:06;;;;;;;0.40;0.37;;;;;;;29.26;38.02;97749.19;5011866;28;20207;-77
2021/06/30 08:15:33;;;;;;;0.40;0.40;;;;;;;28.99;37.29;97760.53;5011461;28;20246;-77
2021/06/30 08:18:00;;;;;;;2.63;0.30;;;;;;;28.75;39.82;97753.91;5011566;28;20300;-77
2021/06/30 08:20:28;;;;;;;0.37;0.30;;;;;;;28.14;40.22;97754.16;5011663;28;20730;-77
2021/06/30 08:22:55;;;;;;;0.40;0.30;;;;;;;28.35;39.53;97761.47;5011414;28;20588;-77
2021/06/30 08:25:24;;;;;;;0.70;0.40;;;;;;;27.78;40.60;97757.09;5011635;28;20213;-77
2021/06/30 08:27:54;;;;;;;1.43;0.50;;;;;;;27.83;40.40;97761.66;5011371;28;20228;-75
2021/06/30 08:30:21;;;;;;;0.20;0.20;;;;;;;27.21;42.38;97757.28;5011515;28;20277;-76
2021/06/30 08:32:49;;;;;;;2.30;0.50;;;;;;;27.33;43.85;97766.56;5008912;28;20616;-77
2021/06/30 08:35:16;;;;;;;0.40;0.40;;;;;;;27.78;41.32;97769.97;5011723;28;20199;-77
2021/06/30 08:37:46;;;;;;;0.30;0.30;;;;;;;28.47;39.84;97769.88;5013446;28;20223;-75
2021/06/30 08:40:14;;;;;;;0.67;0.30;;;;;;;28.45;39.82;97769.41;5015597;28;20271;-74
2021/06/30 08:42:43;;;;;;;0.50;0.50;;;;;;;28.34;40.77;97762.59;5015566;28;20224;-76
2021/06/30 08:45:12;;;;;;;0.30;0.30;;;;;;;28.72;39.62;97766.34;5015098;28;20365;-77
2021/06/30 08:47:41;;;;;;;1.33;0.40;;;;;;;28.92;38.59;97765.69;5015059;28;20231;-73
2021/06/30 08:50:10;;;;;;;1.30;0.50;;;;;;;28.69;38.39;97766.19;5014534;28;20606;-73
2021/06/30 08:52:38;;;;;;;2.10;0.50;;;;;;;27.21;42.63;97751.81;5013931;28;20291;-72
2021/06/30 08:55:08;;;;;;;0.80;0.43;;;;;;;28.44;40.69;97750.50;5014136;28;20228;-73
2021/06/30 08:57:36;;;;;;;2.33;0.37;;;;;;;27.64;42.97;97752.81;5012443;28;20232;-72
2021/06/30 09:00:06;;;;;;;5.33;0.80;;;;;;;27.94;46.67;97739.09;5014808;28;20206;-72
2021/06/30 09:02:34;;;;;;;0.47;0.47;;;;;;;28.12;45.29;97746.22;5014263;28;20235;-72
2021/06/30 09:05:13;;;;;;;2.03;0.40;;;;;;;26.75;48.45;97743.09;5014076;28;20211;-73
2021/06/30 09:07:40;;;;;;;0.37;0.30;;;;;;;27.45;46.17;97735.78;5013922;28;20849;-72
2021/06/30 09:10:09;;;;;;;0.30;0.30;;;;;;;27.79;44.05;97746.94;5013899;28;20215;-73
2021/06/30 09:12:38;;;;;;;0.30;0.30;;;;;;;26.63;42.92;97761.97;5013520;28;20208;-73
2021/06/30 09:15:17;;;;;;;2.67;0.57;;;;;;;28.02;41.80;97757.50;5007648;28;20239;-72
2021/06/30 09:17:47;;;;;;;2.80;0.50;;;;;;;28.11;41.03;97763.00;5010375;28;20262;-73
2021/06/30 09:20:15;;;;;;;3.43;0.40;;;;;;;28.18;39.06;97777.09;5014568;28;20246;-73
2021/06/30 09:22:47;;;;;;;0.40;0.40;;;;;;;26.80;43.17;97764.88;5013787;28;20242;-72
2021/06/30 09:25:29;;;;;;;0.30;0.30;;;;;;;27.53;41.67;97767.94;5014706;28;20730;-74
2021/06/30 09:27:56;;;;;;;0.60;0.37;;;;;;;27.95;39.20;97770.88;5013970;28;20241;-72
2021/06/30 09:30:24;;;;;;;2.43;0.50;;;;;;;28.70;39.00;97765.06;5014276;28;20200;-74
2021/06/30 09:33:02;;;;;;;0.30;0.30;;;;;;;29.91;35.85;97768.09;5013826;28;20200;-74
2021/06/30 09:35:34;;;;;;;2.30;1.30;;;;;;;28.66;40.24;97764.09;5027244;23;20275;-76
2021/06/30 09:38:30;;;;;;;0.50;0.50;;;;;;;30.05;35.33;97766.69;5031756;28;20197;-79
2021/06/30 09:40:58;;;;;;;0.20;0.20;;;;;;;30.86;34.25;97767.19;5027513;28;20577;-80
2021/06/30 09:43:28;;;;;;;0.30;0.30;;;21.50;1.00;;;30.62;31.94;97778.88;5035037;28;20242;-76
2021/06/30 09:45:58;;;;;;;1.27;0.35;;;21.50;1.00;;;31.37;31.66;97770.25;5033783;28;20234;-71
2021/06/30 09:48:38;;;;;;;1.05;0.30;;;21.30;1.00;;;29.46;34.69;97776.00;5015712;28;20220;-72
2021/06/30 09:51:06;;;;;;;0.35;0.30;;;20.50;1.00;;;28.33;37.66;97780.16;5029087;28;20671;-73
2021/06/30 09:53:39;;;;;;;0.40;0.40;;;19.60;1.00;;;27.97;39.87;97787.81;5030884;28;20201;-83
2021/06/30 09:56:14;;;;;;;0.30;0.30;;;19.10;1.00;;;27.13;43.30;97772.53;5028820;28;20555;-83
2021/06/30 09:58:42;;;;;;;0.43;0.30;;;18.50;1.00;;;27.39;40.09;97786.41;5043226;28;20202;-84
2021/06/30 10:01:17;;;;;;;1.40;0.30;;;18.00;1.00;;;28.17;39.58;97773.53;5035342;28;20199;-80
2021/06/30 10:03:46;;;;;;;0.30;0.30;;;18.10;1.00;;;28.17;41.91;97764.50;5036125;28;20226;-80
2021/06/30 10:06:31;;;;;;;0.30;0.30;;;18.30;1.00;;;28.80;40.65;97762.81;5033446;28;20222;-79
2021/06/30 10:09:01;;;;;;;0.17;0.17;;;18.90;1.00;;;28.49;37.90;97764.09;5033522;28;20662;-82
2021/06/30 10:11:29;;;;;;;0.30;0.30;;;19.10;1.00;;;27.32;42.14;97755.91;5032300;28;20261;-81
2021/06/30 10:13:58;;;;;;;0.67;0.30;;;19.10;1.00;;;27.92;38.67;97767.97;5028323;28;20195;-82
2021/06/30 10:16:26;;;;;;;0.90;0.40;;;19.30;1.00;;;28.60;37.09;97765.38;5034919;28;20730;-82
2021/06/30 10:18:57;;;;;;;0.40;0.40;;;19.50;1.00;;;29.61;36.24;97760.91;5041428;28;20204;-82
2021/06/30 10:21:26;;;;;;;0.40;0.40;;;19.70;1.00;;;29.35;34.69;97765.66;5033769;28;20204;-80
2021/06/30 10:23:54;;;;;;;0.20;0.20;;;20.10;1.00;;;29.25;35.23;97779.75;5037007;28;20218;-80
2021/06/30 10:26:23;;;;;;;0.97;0.40;;;20.40;1.00;;;30.08;34.15;97765.22;5033290;28;20537;-74
2021/06/30 10:28:54;;;;;;;0.30;0.30;;;20.90;1.00;;;30.71;32.27;97776.06;5029863;28;20243;-79
2021/06/30 10:31:22;;;;;;;0.30;0.30;;;21.30;1.00;;;29.62;32.17;97787.28;5029066;28;20221;-78
2021/06/30 10:34:00;;;;;;;0.30;0.30;;;20.90;99.90;;;28.91;32.84;97782.50;5031735;28;20205;-79
2021/06/30 10:36:46;;;;;;;0.33;0.33;;;20.30;1.00;;;29.15;33.14;97788.34;5029736;28;20225;-79
2021/06/30 10:39:14;;;;;;;0.40;0.30;;;20.20;1.00;;;27.37;36.63;97766.72;5034120;28;20205;-79
2021/06/30 10:41:47;;;;;;;0.33;0.33;;;19.60;1.00;;;28.32;36.64;97759.34;5032689;28;20204;-79
2021/06/30 10:44:17;;;;;;;0.73;0.40;;;19.90;1.00;;;29.14;32.78;97767.50;5032684;28;20208;-77
2021/06/30 10:46:47;;;;;;;0.30;0.30;;;20.60;1.00;;;28.27;34.21;97767.72;5032396;28;20228;-79
2021/06/30 10:49:23;;;;;;;0.30;0.30;;;20.60;1.00;;;28.10;34.95;97759.47;5032557;28;20201;-78
2021/06/30 10:51:52;;;;;;;0.40;0.40;;;20.20;1.00;;;28.23;34.21;97764.00;5032886;28;20590;-81
2021/06/30 10:54:42;;;;;;;1.33;0.50;;;19.80;1.00;;;29.21;33.37;97760.38;5027071;28;20191;-77
2021/06/30 10:57:28;;;;;;;6.40;2.97;;;19.70;1.00;;;28.98;34.97;97760.88;5031764;28;20225;-78
2021/06/30 11:00:19;;;;;;;1.13;0.47;;;19.40;1.00;;;26.62;40.95;97749.41;5029493;28;20218;-71
2021/06/30 11:03:28;;;;;;;4.00;0.60;;;18.80;1.00;;;27.16;40.16;97743.69;5030128;28;20234;-71
2021/06/30 11:05:56;;;;;;;1.13;0.60;;;18.40;1.00;;;28.09;38.75;97746.88;5023818;28;20244;-71
2021/06/30 11:08:43;;;;;;;0.43;0.43;;;18.50;1.00;;;27.77;40.12;97749.19;5031650;28;20202;-72
2021/06/30 11:11:11;;;;;;;1.07;0.40;;;18.80;1.00;;;28.14;38.66;97754.97;5031403;28;20203;-70
2021/06/30 11:13:59;;;;;;;0.87;0.40;;;19.10;1.00;;;28.02;38.69;97756.72;5031993;28;20214;-70
2021/06/30 11:16:53;;;;;;;1.10;0.40;;;19.20;93.80;;;28.16;38.31;97733.50;5031295;28;20231;-70